Georg Stage — OYKL — position and weather

sailwx.info

Track history (hours):
 
Tides and Currents Weather Stations Pressure Air Temp Water Temp Dewpoint Dewpoint Depression Visibility Wind Speed Wind Dir Waves Ship Positions

Georg Stage (Denmark)

Ship's website: http://www.georgstage.dk

Last reported at 2017-May-10 21:22 UTC. Time now 2017-May-23 04:58 UTC.
Position N 17°44' W 066°49'.
Warning: this ship's position is 12 days out of date.

Length 54 m; draft 4.2 m.

Type: Sailing vessel. MMSI: 219417000.

Date/timePositionNaut miles runAvg speedWind from/ knotsBaromVisibWave heightAir tempDewpointWater temp
2017-May-10 21:22N 17°44' W 066°49'2 6.3
2017-May-10 20:58N 17°44' W 066°47'3 5.8
2017-May-10 20:30N 17°44' W 066°44'3 6.4
2017-May-10 20:00N 17°44' W 066°41'2 4.0
2017-May-10 19:30N 17°45' W 066°39'2 3.6
2017-May-10 18:58N 17°45' W 066°36'2 4.0
2017-May-10 18:30N 17°45' W 066°35'6 4.0
2017-May-10 17:06N 17°45' W 066°29'0 4.3
2017-May-10 17:00N 17°45' W 066°28'2 4.4
2017-May-10 16:27N 17°46' W 066°26'2 3.6
2017-May-10 16:00N 17°46' W 066°24'3 5.3
2017-May-10 15:30N 17°46' W 066°21'3 5.5
2017-May-10 15:00N 17°46' W 066°18'  
2017-May-05 21:21N 17°48' W 063°15'2 4.6
2017-May-05 20:53N 17°48' W 063°13'2 4.8
2017-May-05 20:27N 17°48' W 063°11'3 5.1
2017-May-05 19:49N 17°48' W 063°07'2 4.8
2017-May-05 19:30N 17°48' W 063°06'39 5.4
2017-May-05 12:15N 17°48' W 062°25'2 5.6
2017-May-05 11:58N 17°49' W 062°23'5 5.1
2017-May-05 11:04N 17°49' W 062°19'1 5.7
2017-May-05 10:56N 17°49' W 062°18'3 5.6
2017-May-05 10:24N 17°49' W 062°15'2 4.9
2017-May-05 09:59N 17°49' W 062°12'2 4.2
2017-May-05 09:27N 17°49' W 062°10'2 4.6
2017-May-05 09:00N 17°49' W 062°08'2 4.9
2017-May-05 08:31N 17°49' W 062°05'2 4.8
2017-May-05 08:01N 17°49' W 062°03'2 4.8
2017-May-05 07:31N 17°49' W 062°00'3 4.8
2017-May-05 06:59N 17°50' W 061°58'2 4.7
2017-May-05 06:29N 17°50' W 061°55'12 5.2
2017-May-05 04:06N 17°45' W 061°43'1 5.2
2017-May-05 04:00N 17°45' W 061°43'2 4.9
2017-May-05 03:30N 17°43' W 061°41'3 5.4
2017-May-05 03:00N 17°42' W 061°38'3 5.8
2017-May-05 02:29N 17°40' W 061°36'3 6.1
2017-May-05 02:00N 17°38' W 061°33'3 6.1
2017-May-05 01:30N 17°36' W 061°31'3 6.2
2017-May-05 01:00N 17°35' W 061°28'3 6.4
2017-May-05 00:30N 17°33' W 061°25'3 6.3
2017-May-05 00:00N 17°31' W 061°23'3 6.5
2017-May-04 23:30N 17°29' W 061°20'3 6.5
2017-May-04 23:01N 17°27' W 061°17'3 6.3
2017-May-04 22:31N 17°25' W 061°15'3 5.9
2017-May-04 22:00N 17°24' W 061°12'3 6.1
2017-May-04 21:29N 17°22' W 061°09'3 5.8
2017-May-04 21:00N 17°21' W 061°06'3 5.6
2017-May-04 20:23N 17°20' W 061°03'  
Track history (hours):
 
Tides and Currents Weather Stations Pressure Air Temp Water Temp Dewpoint Dewpoint Depression Visibility Wind Speed Wind Dir Waves Ship Positions

Georg Stage (Denmark)

Ship's website: http://www.georgstage.dk

Last reported at 2017-May-10 21:22 UTC. Time now 2017-May-23 04:58 UTC.
Position N 17°44' W 066°49'.
Warning: this ship's position is 12 days out of date.

Length 54 m; draft 4.2 m.

Type: Sailing vessel. MMSI: 219417000.

Date/timePositionNaut miles runAvg speedWind from/ knotsBaromVisibWave heightAir tempDewpointWater temp
2017-May-10 21:22N 17°44' W 066°49'2 6.3
2017-May-10 20:58N 17°44' W 066°47'3 5.8
2017-May-10 20:30N 17°44' W 066°44'3 6.4
2017-May-10 20:00N 17°44' W 066°41'2 4.0
2017-May-10 19:30N 17°45' W 066°39'2 3.6
2017-May-10 18:58N 17°45' W 066°36'2 4.0
2017-May-10 18:30N 17°45' W 066°35'6 4.0
2017-May-10 17:06N 17°45' W 066°29'0 4.3
2017-May-10 17:00N 17°45' W 066°28'2 4.4
2017-May-10 16:27N 17°46' W 066°26'2 3.6
2017-May-10 16:00N 17°46' W 066°24'3 5.3
2017-May-10 15:30N 17°46' W 066°21'3 5.5
2017-May-10 15:00N 17°46' W 066°18'  
2017-May-05 21:21N 17°48' W 063°15'2 4.6
2017-May-05 20:53N 17°48' W 063°13'2 4.8
2017-May-05 20:27N 17°48' W 063°11'3 5.1
2017-May-05 19:49N 17°48' W 063°07'2 4.8
2017-May-05 19:30N 17°48' W 063°06'39 5.4
2017-May-05 12:15N 17°48' W 062°25'2 5.6
2017-May-05 11:58N 17°49' W 062°23'5 5.1
2017-May-05 11:04N 17°49' W 062°19'1 5.7
2017-May-05 10:56N 17°49' W 062°18'3 5.6
2017-May-05 10:24N 17°49' W 062°15'2 4.9
2017-May-05 09:59N 17°49' W 062°12'2 4.2
2017-May-05 09:27N 17°49' W 062°10'2 4.6
2017-May-05 09:00N 17°49' W 062°08'2 4.9
2017-May-05 08:31N 17°49' W 062°05'2 4.8
2017-May-05 08:01N 17°49' W 062°03'2 4.8
2017-May-05 07:31N 17°49' W 062°00'3 4.8
2017-May-05 06:59N 17°50' W 061°58'2 4.7
2017-May-05 06:29N 17°50' W 061°55'12 5.2
2017-May-05 04:06N 17°45' W 061°43'1 5.2
2017-May-05 04:00N 17°45' W 061°43'2 4.9
2017-May-05 03:30N 17°43' W 061°41'3 5.4
2017-May-05 03:00N 17°42' W 061°38'3 5.8
2017-May-05 02:29N 17°40' W 061°36'3 6.1
2017-May-05 02:00N 17°38' W 061°33'3 6.1
2017-May-05 01:30N 17°36' W 061°31'3 6.2
2017-May-05 01:00N 17°35' W 061°28'3 6.4
2017-May-05 00:30N 17°33' W 061°25'3 6.3
2017-May-05 00:00N 17°31' W 061°23'3 6.5
2017-May-04 23:30N 17°29' W 061°20'3 6.5
2017-May-04 23:01N 17°27' W 061°17'3 6.3
2017-May-04 22:31N 17°25' W 061°15'3 5.9
2017-May-04 22:00N 17°24' W 061°12'3 6.1
2017-May-04 21:29N 17°22' W 061°09'3 5.8
2017-May-04 21:00N 17°21' W 061°06'3 5.6
2017-May-04 20:23N 17°20' W 061°03'  

Dump ship's entire track history